Marrakech, Morocco

10:42 AM WEST on August 29, 2015 (GMT +0100)
Menara | | Change Station
CLOSE
Current Station
Airport
Location: Marrakech,
Elevation: 1529 ft
Nearby Weather Stations

Elev 1529 ft 31.61 °N, 8.04 °W | Updated 12 minutes ago

Scattered Clouds
Scattered Clouds
93 °F
Feels Like 94 °F
N
10
Wind Variable Wind from WSW

Today
High -- | Low -- °F
--% Chance of Precip.
Yesterday
High -- | Low -- °F
Precip. -- in
7:05 AM 8:00 PM
Full, 100% visible
Pressure 29.89 in
Visibility 6.2 miles
Clouds Few 3300 ft
Scattered Clouds 20000 ft
Heat Index 94 °F
Dew Point 63 °F
Humidity 36%
Rainfall 0.00 in
Snow Depth Not available.
UV 5 out of 12
Pollen Not available.
Air Quality Not available.
Flu Activity Not available.
METAR GMMX 290930Z 25009KT 220V290 9999 FEW033 SCT200 34/17 Q1012 NOSIG
Pressure 29.89 in
Visibility 6.2 miles
Clouds Few 3300 ft
Scattered Clouds 20000 ft
Heat Index 94 °F
Dew Point 63 °F
Humidity 36%
Rainfall 0.00 in
Snow Depth Not available.
UV 5 out of 12
Pollen Not available.
Air Quality Not available.
Flu Activity Not available.
METAR GMMX 290930Z 25009KT 220V290 9999 FEW033 SCT200 34/17 Q1012 NOSIG

10-Day Weather Forecast

×

Almanac

Astronomy

Aug. 29, 2015 Rise Set
Actual Time
Civil Twilight
Nautical Twilight
Astronomical Twilight
Moon
Length of Visible Light
Length of Day
Tomorrow will be .
, % of the Moon is Illuminated

Today's Extremes

Country Highs Country Lows

Community

WunderPhotos

Upload Photos

1,850,634 photos uploaded!

WunderBlogs® & News

Nearby

Air Quality

  Air Quality AQ Index Pollutant
Not available.

Snow Depth

Station Depth Elevation

Earthquake Activity

City Distance Mag. Time & Date
Minimum magnitude displayed is 2.5.

Coastal Water Temperatures

Place Temperature

Stations

Nearby Weather Stations

Station Location Temp. Windchill Dew Point Humidity Wind Precip. Elev Updated Type